Nearby METAR Reports

 

EGNX - East Midlands, United Kingdom
Distance from station: SW 12mi, 19km
Updated: 26/06/2022 21:50
Clear
Clear
 Wind from S
Wind: S 19 km/h
Temperature: 16°C
Dew Point: 6°C
Humidity: 52%
Barometer: 1011 hPa
Summary: Clear
Visibility: greater than 10 km
2022/06/26 20:50 EGNX 262050Z 19010KT CAVOK 16/06 Q1011
EGYE - Barkston Heath R, United Kingdom
Distance from station: E 24mi, 39km
Updated: 24/06/2022 15:50
NOT Current
Partly cloudy
Partly cloudy
 Wind from SSW
Wind: SSW 33 km/h
Barometer: 1001 hPa
Clouds: Partly cloudy
Visibility: 10 km
Cloud details: Partly cloudy 1067 m
Partly cloudy 1524 m
2022/06/24 14:50 EGYE 241450Z 20018KT 9999 SCT035 SCT050 ///// Q1001 RMK BLU
 
EGYD - Cranwell Raf, United Kingdom
Distance from station: ENE 28mi, 44km
Updated: 26/06/2022 21:50
Clear
Clear
 Wind from SSW
Wind: SSW 22 km/h
Temperature: 15°C
Dew Point: 6°C
Humidity: 55%
Barometer: 1011 hPa
Clouds: Clear
2022/06/26 20:50 EGYD 262050Z AUTO 20012KT //// NCD 15/06 Q1011
EGXW - Waddington Raf, United Kingdom
Distance from station: ENE 31mi, 50km
Updated: 26/06/2022 21:50
Clear
Clear
 Wind from SSW
Wind: SSW 20 km/h
Temperature: 16°C
Dew Point: 6°C
Humidity: 52%
Barometer: 1011 hPa
Clouds: Clear
Visibility: 10 km
2022/06/26 20:50 EGXW 262050Z AUTO 20011KT 9999 NCD 16/06 Q1011
 
EGSY - Yorkshire/Humber, United Kingdom
Distance from station: NNW 33mi, 52km
Updated: 26/06/2022 16:50
NOT Current
Partly cloudy
Partly cloudy
 Wind from WSW
Wind: WSW 20 km/h
Temperature: 18°C
Dew Point: 10°C
Humidity: 60%
Barometer: 1010 hPa
Clouds: Partly cloudy
Visibility: 10 km
Cloud details: Partly cloudy 1463 m
2022/06/26 15:50 EGSY 261550Z 24011KT 9999 SCT048 18/10 Q1010
EGXP - Scampton Raf, United Kingdom
Distance from station: NE 35mi, 56km
Updated: 26/06/2022 21:50
Clear
Clear
 Wind from SSW
Wind: SSW 19 km/h
Temperature: 17°C
Dew Point: 5°C
Humidity: 45%
Barometer: 1010 hPa
Clouds: Clear
Visibility: 10 km
2022/06/26 20:50 EGXP 262050Z AUTO 20010KT 9999 // NCD 17/05 Q1010
 
EGXT - Wittering Raf, United Kingdom
Distance from station: SE 37mi, 59km
Updated: 26/06/2022 21:50
Clear
Clear
 Wind from S
Wind: S 13 km/h
Temperature: 14°C
Dew Point: 6°C
Humidity: 59%
Barometer: 1011 hPa
Clouds: Clear
Visibility: 10 km
2022/06/26 20:50 EGXT 262050Z AUTO 19007KT 9999 NCD 14/06 Q1011
EGCN - Doncaster Sheffi, United Kingdom
Distance from station: N 37mi, 60km
Updated: 26/06/2022 21:50
Clear
Clear
 Wind from S
Wind: S 20 km/h
Temperature: 18°C
Dew Point: 6°C
Humidity: 46%
Barometer: 1011 hPa
Summary: Clear
Visibility: greater than 10 km
2022/06/26 20:50 EGCN 262050Z 19011KT CAVOK 18/06 Q1011
 
EGBB - Birmingham Airpo, United Kingdom
Distance from station: SW 42mi, 67km
Updated: 26/06/2022 21:50
Few Clouds
Few Clouds
 Wind from S
Wind: S 13 km/h
Temperature: 16°C
Dew Point: 7°C
Humidity: 55%
Barometer: 1011 hPa
Clouds: Few Clouds
Visibility: 10 km
Cloud details: Few Clouds 1463 m
2022/06/26 20:50 EGBB 262050Z 18007KT 9999 FEW048 16/07 Q1011
EGXC - Coningsby Raf, United Kingdom
Distance from station: ENE 42mi, 68km
Updated: 26/06/2022 21:50
Clear
Clear
 Wind from S
Wind: S 15 km/h
Temperature: 15°C
Dew Point: 8°C
Humidity: 63%
Barometer: 1011 hPa
Summary: Clear
Visibility: greater than 10 km
2022/06/26 20:50 EGXC 262050Z 19008KT CAVOK 15/08 Q1011 RMK BLU